sensor_id;sensor_type;location;lat;lon;timestamp;P1;durP1;ratioP1;P2;durP2;ratioP2
9729;SDS011;4904;49.152;11.004;2023-12-07T00:01:09;18.93;;;14.73;;
9729;SDS011;4904;49.152;11.004;2023-12-07T00:03:36;16.37;;;13.17;;
9729;SDS011;4904;49.152;11.004;2023-12-07T00:06:03;16.83;;;13.80;;
9729;SDS011;4904;49.152;11.004;2023-12-07T00:08:32;19.30;;;13.10;;
9729;SDS011;4904;49.152;11.004;2023-12-07T00:10:59;16.77;;;13.20;;
9729;SDS011;4904;49.152;11.004;2023-12-07T00:13:26;20.70;;;14.00;;
9729;SDS011;4904;49.152;11.004;2023-12-07T00:15:53;15.97;;;12.03;;
9729;SDS011;4904;49.152;11.004;2023-12-07T00:18:20;17.73;;;13.63;;
9729;SDS011;4904;49.152;11.004;2023-12-07T00:20:47;16.93;;;11.80;;
9729;SDS011;4904;49.152;11.004;2023-12-07T00:23:14;16.53;;;12.70;;
9729;SDS011;4904;49.152;11.004;2023-12-07T00:25:42;13.77;;;11.63;;
9729;SDS011;4904;49.152;11.004;2023-12-07T00:28:10;16.90;;;12.20;;
9729;SDS011;4904;49.152;11.004;2023-12-07T00:30:37;14.70;;;11.83;;
9729;SDS011;4904;49.152;11.004;2023-12-07T00:33:04;16.67;;;12.23;;
9729;SDS011;4904;49.152;11.004;2023-12-07T00:35:31;15.80;;;12.60;;
9729;SDS011;4904;49.152;11.004;2023-12-07T00:37:58;16.80;;;13.20;;
9729;SDS011;4904;49.152;11.004;2023-12-07T00:40:25;16.50;;;13.37;;
9729;SDS011;4904;49.152;11.004;2023-12-07T00:42:54;16.87;;;13.30;;
9729;SDS011;4904;49.152;11.004;2023-12-07T00:45:20;15.10;;;12.60;;
9729;SDS011;4904;49.152;11.004;2023-12-07T00:47:47;16.57;;;11.80;;
9729;SDS011;4904;49.152;11.004;2023-12-07T00:50:14;14.90;;;12.50;;
9729;SDS011;4904;49.152;11.004;2023-12-07T00:52:41;17.43;;;13.13;;
9729;SDS011;4904;49.152;11.004;2023-12-07T00:55:08;16.77;;;12.93;;
9729;SDS011;4904;49.152;11.004;2023-12-07T00:57:35;14.37;;;12.57;;
9729;SDS011;4904;49.152;11.004;2023-12-07T01:00:03;15.73;;;12.30;;
9729;SDS011;4904;49.152;11.004;2023-12-07T01:02:49;16.10;;;13.20;;
9729;SDS011;4904;49.152;11.004;2023-12-07T01:05:16;17.03;;;12.73;;
9729;SDS011;4904;49.152;11.004;2023-12-07T01:07:43;16.63;;;13.33;;
9729;SDS011;4904;49.152;11.004;2023-12-07T01:10:10;15.80;;;13.37;;
9729;SDS011;4904;49.152;11.004;2023-12-07T01:12:36;17.93;;;13.43;;
9729;SDS011;4904;49.152;11.004;2023-12-07T01:15:05;16.07;;;13.07;;
9729;SDS011;4904;49.152;11.004;2023-12-07T01:17:32;15.93;;;12.47;;
9729;SDS011;4904;49.152;11.004;2023-12-07T01:19:59;17.83;;;13.20;;
9729;SDS011;4904;49.152;11.004;2023-12-07T01:22:28;17.03;;;13.37;;
9729;SDS011;4904;49.152;11.004;2023-12-07T01:24:55;15.43;;;12.27;;
9729;SDS011;4904;49.152;11.004;2023-12-07T01:27:22;16.67;;;12.73;;
9729;SDS011;4904;49.152;11.004;2023-12-07T01:29:49;16.70;;;11.77;;
9729;SDS011;4904;49.152;11.004;2023-12-07T01:32:17;15.53;;;12.70;;
9729;SDS011;4904;49.152;11.004;2023-12-07T01:34:44;14.70;;;12.43;;
9729;SDS011;4904;49.152;11.004;2023-12-07T01:37:11;17.53;;;11.73;;
9729;SDS011;4904;49.152;11.004;2023-12-07T01:39:38;16.93;;;12.93;;
9729;SDS011;4904;49.152;11.004;2023-12-07T01:42:05;14.67;;;11.73;;
9729;SDS011;4904;49.152;11.004;2023-12-07T01:44:31;15.03;;;12.37;;
9729;SDS011;4904;49.152;11.004;2023-12-07T01:46:58;16.17;;;12.63;;
9729;SDS011;4904;49.152;11.004;2023-12-07T01:49:28;17.17;;;13.57;;
9729;SDS011;4904;49.152;11.004;2023-12-07T01:51:55;15.43;;;12.77;;
9729;SDS011;4904;49.152;11.004;2023-12-07T01:54:23;15.33;;;12.53;;
9729;SDS011;4904;49.152;11.004;2023-12-07T01:56:50;16.13;;;13.00;;
9729;SDS011;4904;49.152;11.004;2023-12-07T01:59:18;18.77;;;13.23;;
9729;SDS011;4904;49.152;11.004;2023-12-07T02:01:45;16.33;;;13.40;;
9729;SDS011;4904;49.152;11.004;2023-12-07T02:04:11;18.43;;;13.37;;
9729;SDS011;4904;49.152;11.004;2023-12-07T02:06:40;16.57;;;13.37;;
9729;SDS011;4904;49.152;11.004;2023-12-07T02:09:07;19.77;;;13.93;;
9729;SDS011;4904;49.152;11.004;2023-12-07T02:11:34;16.77;;;13.33;;
9729;SDS011;4904;49.152;11.004;2023-12-07T02:14:01;17.23;;;13.60;;
9729;SDS011;4904;49.152;11.004;2023-12-07T02:16:29;15.63;;;12.97;;
9729;SDS011;4904;49.152;11.004;2023-12-07T02:19:02;18.93;;;14.67;;
9729;SDS011;4904;49.152;11.004;2023-12-07T02:21:38;18.30;;;13.50;;
9729;SDS011;4904;49.152;11.004;2023-12-07T02:24:11;20.37;;;13.63;;
9729;SDS011;4904;49.152;11.004;2023-12-07T02:26:44;18.37;;;13.43;;
9729;SDS011;4904;49.152;11.004;2023-12-07T02:29:10;17.53;;;13.70;;
9729;SDS011;4904;49.152;11.004;2023-12-07T02:31:37;16.93;;;12.17;;
9729;SDS011;4904;49.152;11.004;2023-12-07T02:34:04;18.70;;;13.97;;
9729;SDS011;4904;49.152;11.004;2023-12-07T02:36:31;17.13;;;13.70;;
9729;SDS011;4904;49.152;11.004;2023-12-07T02:39:01;21.03;;;13.57;;
9729;SDS011;4904;49.152;11.004;2023-12-07T02:41:29;14.93;;;13.10;;
9729;SDS011;4904;49.152;11.004;2023-12-07T02:43:59;19.33;;;13.57;;
9729;SDS011;4904;49.152;11.004;2023-12-07T02:46:26;17.90;;;13.23;;
9729;SDS011;4904;49.152;11.004;2023-12-07T02:48:53;17.27;;;13.43;;
9729;SDS011;4904;49.152;11.004;2023-12-07T02:51:19;17.93;;;13.23;;
9729;SDS011;4904;49.152;11.004;2023-12-07T02:53:46;17.43;;;13.03;;
9729;SDS011;4904;49.152;11.004;2023-12-07T02:56:13;15.07;;;13.00;;
9729;SDS011;4904;49.152;11.004;2023-12-07T02:58:40;19.60;;;13.10;;
9729;SDS011;4904;49.152;11.004;2023-12-07T03:01:08;17.80;;;13.20;;
9729;SDS011;4904;49.152;11.004;2023-12-07T03:03:35;15.80;;;12.63;;
9729;SDS011;4904;49.152;11.004;2023-12-07T03:06:03;17.37;;;12.50;;
9729;SDS011;4904;49.152;11.004;2023-12-07T03:08:30;17.10;;;12.07;;
9729;SDS011;4904;49.152;11.004;2023-12-07T03:10:57;17.50;;;13.07;;
9729;SDS011;4904;49.152;11.004;2023-12-07T03:13:24;15.77;;;13.13;;
9729;SDS011;4904;49.152;11.004;2023-12-07T03:15:51;17.23;;;12.47;;
9729;SDS011;4904;49.152;11.004;2023-12-07T03:18:19;15.83;;;12.70;;
9729;SDS011;4904;49.152;11.004;2023-12-07T03:20:46;16.93;;;11.97;;
9729;SDS011;4904;49.152;11.004;2023-12-07T03:23:13;17.23;;;13.20;;
9729;SDS011;4904;49.152;11.004;2023-12-07T03:25:40;19.27;;;13.07;;
9729;SDS011;4904;49.152;11.004;2023-12-07T03:28:08;16.20;;;12.77;;
9729;SDS011;4904;49.152;11.004;2023-12-07T03:30:35;17.27;;;12.80;;
9729;SDS011;4904;49.152;11.004;2023-12-07T03:33:02;16.93;;;12.87;;
9729;SDS011;4904;49.152;11.004;2023-12-07T03:35:30;13.80;;;12.30;;
9729;SDS011;4904;49.152;11.004;2023-12-07T03:37:57;14.90;;;12.83;;
9729;SDS011;4904;49.152;11.004;2023-12-07T03:40:24;17.13;;;13.10;;
9729;SDS011;4904;49.152;11.004;2023-12-07T03:42:51;17.63;;;12.50;;
9729;SDS011;4904;49.152;11.004;2023-12-07T03:45:16;16.93;;;13.20;;
9729;SDS011;4904;49.152;11.004;2023-12-07T03:47:43;15.90;;;13.20;;
9729;SDS011;4904;49.152;11.004;2023-12-07T03:50:10;15.77;;;12.77;;
9729;SDS011;4904;49.152;11.004;2023-12-07T03:52:38;17.40;;;14.07;;
9729;SDS011;4904;49.152;11.004;2023-12-07T03:55:05;15.70;;;12.80;;
9729;SDS011;4904;49.152;11.004;2023-12-07T03:57:33;16.10;;;12.00;;
9729;SDS011;4904;49.152;11.004;2023-12-07T04:00:00;16.27;;;13.40;;
9729;SDS011;4904;49.152;11.004;2023-12-07T04:02:29;16.37;;;13.20;;
9729;SDS011;4904;49.152;11.004;2023-12-07T04:04:58;16.53;;;13.40;;
9729;SDS011;4904;49.152;11.004;2023-12-07T04:07:26;15.90;;;12.60;;
9729;SDS011;4904;49.152;11.004;2023-12-07T04:09:55;18.37;;;13.73;;
9729;SDS011;4904;49.152;11.004;2023-12-07T04:12:23;16.80;;;13.90;;
9729;SDS011;4904;49.152;11.004;2023-12-07T04:14:49;15.53;;;13.40;;
9729;SDS011;4904;49.152;11.004;2023-12-07T04:17:17;16.87;;;12.60;;
9729;SDS011;4904;49.152;11.004;2023-12-07T04:19:43;14.97;;;12.80;;
9729;SDS011;4904;49.152;11.004;2023-12-07T04:22:10;20.50;;;13.93;;
9729;SDS011;4904;49.152;11.004;2023-12-07T04:24:37;17.40;;;14.10;;
9729;SDS011;4904;49.152;11.004;2023-12-07T04:27:05;18.03;;;13.93;;
9729;SDS011;4904;49.152;11.004;2023-12-07T04:29:32;16.70;;;14.00;;
9729;SDS011;4904;49.152;11.004;2023-12-07T04:31:59;17.73;;;13.77;;
9729;SDS011;4904;49.152;11.004;2023-12-07T04:34:27;16.67;;;13.90;;
9729;SDS011;4904;49.152;11.004;2023-12-07T04:36:54;18.73;;;14.13;;
9729;SDS011;4904;49.152;11.004;2023-12-07T04:39:20;19.13;;;13.53;;
9729;SDS011;4904;49.152;11.004;2023-12-07T04:41:48;22.23;;;15.50;;
9729;SDS011;4904;49.152;11.004;2023-12-07T04:44:16;16.90;;;13.57;;
9729;SDS011;4904;49.152;11.004;2023-12-07T04:46:44;16.63;;;14.63;;
9729;SDS011;4904;49.152;11.004;2023-12-07T04:49:11;19.30;;;14.70;;
9729;SDS011;4904;49.152;11.004;2023-12-07T04:51:38;18.03;;;14.37;;
9729;SDS011;4904;49.152;11.004;2023-12-07T04:54:07;19.00;;;15.57;;
9729;SDS011;4904;49.152;11.004;2023-12-07T04:56:33;19.03;;;14.70;;
9729;SDS011;4904;49.152;11.004;2023-12-07T04:59:00;16.80;;;14.80;;
9729;SDS011;4904;49.152;11.004;2023-12-07T05:01:29;18.03;;;14.47;;
9729;SDS011;4904;49.152;11.004;2023-12-07T05:03:55;19.03;;;15.33;;
9729;SDS011;4904;49.152;11.004;2023-12-07T05:06:22;18.97;;;15.57;;
9729;SDS011;4904;49.152;11.004;2023-12-07T05:08:50;17.70;;;14.83;;
9729;SDS011;4904;49.152;11.004;2023-12-07T05:11:16;18.67;;;14.63;;
9729;SDS011;4904;49.152;11.004;2023-12-07T05:13:43;20.20;;;15.00;;
9729;SDS011;4904;49.152;11.004;2023-12-07T05:16:10;18.40;;;14.27;;
9729;SDS011;4904;49.152;11.004;2023-12-07T05:18:38;16.90;;;13.53;;
9729;SDS011;4904;49.152;11.004;2023-12-07T05:21:06;14.43;;;12.47;;
9729;SDS011;4904;49.152;11.004;2023-12-07T05:23:33;17.20;;;13.53;;
9729;SDS011;4904;49.152;11.004;2023-12-07T05:26:00;17.30;;;13.50;;
9729;SDS011;4904;49.152;11.004;2023-12-07T05:28:28;19.50;;;14.70;;
9729;SDS011;4904;49.152;11.004;2023-12-07T05:30:54;16.40;;;13.80;;
9729;SDS011;4904;49.152;11.004;2023-12-07T05:33:22;15.87;;;13.27;;
9729;SDS011;4904;49.152;11.004;2023-12-07T05:35:51;16.10;;;13.50;;
9729;SDS011;4904;49.152;11.004;2023-12-07T05:38:18;16.47;;;13.23;;
9729;SDS011;4904;49.152;11.004;2023-12-07T05:40:45;15.87;;;13.47;;
9729;SDS011;4904;49.152;11.004;2023-12-07T05:43:11;18.23;;;12.90;;
9729;SDS011;4904;49.152;11.004;2023-12-07T05:45:38;15.47;;;13.27;;
9729;SDS011;4904;49.152;11.004;2023-12-07T05:48:06;18.13;;;13.77;;
9729;SDS011;4904;49.152;11.004;2023-12-07T05:50:33;15.57;;;13.73;;
9729;SDS011;4904;49.152;11.004;2023-12-07T05:53:05;14.90;;;12.97;;
9729;SDS011;4904;49.152;11.004;2023-12-07T05:55:34;18.20;;;14.67;;
9729;SDS011;4904;49.152;11.004;2023-12-07T05:58:00;17.33;;;13.87;;
9729;SDS011;4904;49.152;11.004;2023-12-07T06:00:28;18.17;;;14.80;;
9729;SDS011;4904;49.152;11.004;2023-12-07T06:02:56;19.10;;;14.30;;
9729;SDS011;4904;49.152;11.004;2023-12-07T06:05:23;18.47;;;15.10;;
9729;SDS011;4904;49.152;11.004;2023-12-07T06:07:50;18.47;;;14.77;;
9729;SDS011;4904;49.152;11.004;2023-12-07T06:10:19;18.43;;;14.07;;
9729;SDS011;4904;49.152;11.004;2023-12-07T06:12:46;19.43;;;14.73;;
9729;SDS011;4904;49.152;11.004;2023-12-07T06:15:13;17.30;;;15.03;;
9729;SDS011;4904;49.152;11.004;2023-12-07T06:17:40;17.33;;;14.07;;
9729;SDS011;4904;49.152;11.004;2023-12-07T06:20:08;18.13;;;14.57;;
9729;SDS011;4904;49.152;11.004;2023-12-07T06:22:35;19.50;;;15.20;;
9729;SDS011;4904;49.152;11.004;2023-12-07T06:25:02;18.90;;;15.13;;
9729;SDS011;4904;49.152;11.004;2023-12-07T06:27:31;20.43;;;15.87;;
9729;SDS011;4904;49.152;11.004;2023-12-07T06:29:58;18.47;;;14.90;;
9729;SDS011;4904;49.152;11.004;2023-12-07T06:32:25;19.93;;;15.17;;
9729;SDS011;4904;49.152;11.004;2023-12-07T06:34:52;17.00;;;13.37;;
9729;SDS011;4904;49.152;11.004;2023-12-07T06:37:19;17.03;;;13.57;;
9729;SDS011;4904;49.152;11.004;2023-12-07T06:39:46;15.07;;;12.20;;
9729;SDS011;4904;49.152;11.004;2023-12-07T06:42:14;14.97;;;12.50;;
9729;SDS011;4904;49.152;11.004;2023-12-07T06:44:45;15.77;;;12.87;;
9729;SDS011;4904;49.152;11.004;2023-12-07T06:47:13;15.70;;;12.10;;
9729;SDS011;4904;49.152;11.004;2023-12-07T06:49:40;16.70;;;12.40;;
9729;SDS011;4904;49.152;11.004;2023-12-07T06:52:07;16.53;;;12.03;;
9729;SDS011;4904;49.152;11.004;2023-12-07T06:54:36;15.00;;;11.93;;
9729;SDS011;4904;49.152;11.004;2023-12-07T06:57:04;15.60;;;11.70;;
9729;SDS011;4904;49.152;11.004;2023-12-07T06:59:31;15.03;;;11.27;;
9729;SDS011;4904;49.152;11.004;2023-12-07T07:02:00;16.23;;;11.90;;
9729;SDS011;4904;49.152;11.004;2023-12-07T07:04:27;13.23;;;11.60;;
9729;SDS011;4904;49.152;11.004;2023-12-07T07:06:55;16.47;;;11.30;;
9729;SDS011;4904;49.152;11.004;2023-12-07T07:09:22;14.83;;;12.57;;
9729;SDS011;4904;49.152;11.004;2023-12-07T07:11:50;17.23;;;12.33;;
9729;SDS011;4904;49.152;11.004;2023-12-07T07:14:18;17.30;;;13.10;;
9729;SDS011;4904;49.152;11.004;2023-12-07T07:16:44;17.97;;;13.00;;
9729;SDS011;4904;49.152;11.004;2023-12-07T07:19:13;16.27;;;12.93;;
9729;SDS011;4904;49.152;11.004;2023-12-07T07:21:41;15.17;;;12.13;;
9729;SDS011;4904;49.152;11.004;2023-12-07T07:24:09;11.53;;;9.80;;
9729;SDS011;4904;49.152;11.004;2023-12-07T07:26:35;14.27;;;11.60;;
9729;SDS011;4904;49.152;11.004;2023-12-07T07:29:03;14.47;;;12.30;;
9729;SDS011;4904;49.152;11.004;2023-12-07T07:31:31;14.53;;;12.03;;
9729;SDS011;4904;49.152;11.004;2023-12-07T07:33:58;14.07;;;11.70;;
9729;SDS011;4904;49.152;11.004;2023-12-07T07:36:26;17.73;;;12.13;;
9729;SDS011;4904;49.152;11.004;2023-12-07T07:38:53;15.00;;;12.30;;
9729;SDS011;4904;49.152;11.004;2023-12-07T07:41:20;15.17;;;11.93;;
9729;SDS011;4904;49.152;11.004;2023-12-07T07:43:48;15.43;;;12.97;;
9729;SDS011;4904;49.152;11.004;2023-12-07T07:46:15;15.17;;;12.27;;
9729;SDS011;4904;49.152;11.004;2023-12-07T07:48:42;16.13;;;12.00;;
9729;SDS011;4904;49.152;11.004;2023-12-07T07:51:09;13.87;;;12.20;;
9729;SDS011;4904;49.152;11.004;2023-12-07T07:53:37;15.47;;;12.33;;
9729;SDS011;4904;49.152;11.004;2023-12-07T07:56:04;16.87;;;12.70;;
9729;SDS011;4904;49.152;11.004;2023-12-07T07:58:32;15.30;;;12.23;;
9729;SDS011;4904;49.152;11.004;2023-12-07T08:00:58;15.27;;;12.03;;
9729;SDS011;4904;49.152;11.004;2023-12-07T08:03:25;15.53;;;12.63;;
9729;SDS011;4904;49.152;11.004;2023-12-07T08:05:52;16.00;;;12.67;;
9729;SDS011;4904;49.152;11.004;2023-12-07T08:08:19;17.57;;;12.20;;
9729;SDS011;4904;49.152;11.004;2023-12-07T08:10:47;15.13;;;12.53;;
9729;SDS011;4904;49.152;11.004;2023-12-07T08:13:14;14.57;;;12.43;;
9729;SDS011;4904;49.152;11.004;2023-12-07T08:15:41;14.43;;;12.13;;
9729;SDS011;4904;49.152;11.004;2023-12-07T08:18:08;14.37;;;12.10;;
9729;SDS011;4904;49.152;11.004;2023-12-07T08:20:36;15.97;;;11.73;;
9729;SDS011;4904;49.152;11.004;2023-12-07T08:23:03;14.60;;;11.77;;
9729;SDS011;4904;49.152;11.004;2023-12-07T08:25:30;14.77;;;11.93;;
9729;SDS011;4904;49.152;11.004;2023-12-07T08:27:59;30.60;;;20.83;;
9729;SDS011;4904;49.152;11.004;2023-12-07T08:30:26;17.63;;;13.40;;
9729;SDS011;4904;49.152;11.004;2023-12-07T08:32:53;16.10;;;12.80;;
9729;SDS011;4904;49.152;11.004;2023-12-07T08:35:19;13.97;;;11.17;;
9729;SDS011;4904;49.152;11.004;2023-12-07T08:37:46;16.57;;;12.87;;
9729;SDS011;4904;49.152;11.004;2023-12-07T08:40:14;14.13;;;12.20;;
9729;SDS011;4904;49.152;11.004;2023-12-07T08:42:43;14.87;;;12.73;;
9729;SDS011;4904;49.152;11.004;2023-12-07T08:45:13;14.93;;;13.33;;
9729;SDS011;4904;49.152;11.004;2023-12-07T08:47:41;15.13;;;12.50;;
9729;SDS011;4904;49.152;11.004;2023-12-07T08:50:08;14.63;;;12.63;;
9729;SDS011;4904;49.152;11.004;2023-12-07T08:52:35;16.70;;;13.93;;
9729;SDS011;4904;49.152;11.004;2023-12-07T08:55:02;46.27;;;31.87;;
9729;SDS011;4904;49.152;11.004;2023-12-07T08:57:30;43.83;;;32.10;;
9729;SDS011;4904;49.152;11.004;2023-12-07T08:59:56;31.70;;;23.73;;
9729;SDS011;4904;49.152;11.004;2023-12-07T09:02:26;27.60;;;21.57;;
9729;SDS011;4904;49.152;11.004;2023-12-07T09:04:52;21.97;;;16.03;;
9729;SDS011;4904;49.152;11.004;2023-12-07T09:07:19;20.50;;;14.27;;
9729;SDS011;4904;49.152;11.004;2023-12-07T09:09:46;16.83;;;14.47;;
9729;SDS011;4904;49.152;11.004;2023-12-07T09:12:13;17.00;;;14.00;;
9729;SDS011;4904;49.152;11.004;2023-12-07T09:14:41;14.63;;;12.57;;
9729;SDS011;4904;49.152;11.004;2023-12-07T09:17:08;16.67;;;13.67;;
9729;SDS011;4904;49.152;11.004;2023-12-07T09:19:36;16.73;;;12.50;;
9729;SDS011;4904;49.152;11.004;2023-12-07T09:22:03;16.40;;;13.67;;
9729;SDS011;4904;49.152;11.004;2023-12-07T09:24:29;17.37;;;13.57;;
9729;SDS011;4904;49.152;11.004;2023-12-07T09:26:56;15.67;;;12.97;;
9729;SDS011;4904;49.152;11.004;2023-12-07T09:29:23;15.57;;;12.27;;
9729;SDS011;4904;49.152;11.004;2023-12-07T09:31:49;16.52;;;13.13;;
9729;SDS011;4904;49.152;11.004;2023-12-07T09:34:16;14.40;;;11.23;;
9729;SDS011;4904;49.152;11.004;2023-12-07T09:36:45;13.13;;;11.23;;
9729;SDS011;4904;49.152;11.004;2023-12-07T09:39:12;11.40;;;10.23;;
9729;SDS011;4904;49.152;11.004;2023-12-07T09:41:39;12.20;;;9.40;;
9729;SDS011;4904;49.152;11.004;2023-12-07T09:44:08;9.33;;;8.30;;
9729;SDS011;4904;49.152;11.004;2023-12-07T09:46:35;9.93;;;8.20;;
9729;SDS011;4904;49.152;11.004;2023-12-07T09:49:03;9.33;;;8.07;;
9729;SDS011;4904;49.152;11.004;2023-12-07T09:51:30;10.20;;;8.50;;
9729;SDS011;4904;49.152;11.004;2023-12-07T09:54:00;10.13;;;8.17;;
9729;SDS011;4904;49.152;11.004;2023-12-07T09:56:29;10.27;;;8.37;;
9729;SDS011;4904;49.152;11.004;2023-12-07T09:58:55;10.97;;;8.70;;
9729;SDS011;4904;49.152;11.004;2023-12-07T10:01:27;11.33;;;8.43;;
9729;SDS011;4904;49.152;11.004;2023-12-07T10:06:42;10.17;;;8.93;;
9729;SDS011;4904;49.152;11.004;2023-12-07T10:09:12;9.53;;;8.53;;
9729;SDS011;4904;49.152;11.004;2023-12-07T10:11:40;13.50;;;10.17;;
9729;SDS011;4904;49.152;11.004;2023-12-07T10:14:08;19.57;;;13.57;;
9729;SDS011;4904;49.152;11.004;2023-12-07T10:16:35;17.13;;;13.33;;
9729;SDS011;4904;49.152;11.004;2023-12-07T10:19:12;11.13;;;9.40;;
9729;SDS011;4904;49.152;11.004;2023-12-07T10:21:42;9.13;;;8.20;;
9729;SDS011;4904;49.152;11.004;2023-12-07T10:24:09;9.60;;;8.55;;
9729;SDS011;4904;49.152;11.004;2023-12-07T10:26:38;10.05;;;8.07;;
9729;SDS011;4904;49.152;11.004;2023-12-07T10:29:06;9.40;;;8.40;;
9729;SDS011;4904;49.152;11.004;2023-12-07T10:31:33;10.47;;;8.40;;
9729;SDS011;4904;49.152;11.004;2023-12-07T10:34:00;12.83;;;8.63;;
9729;SDS011;4904;49.152;11.004;2023-12-07T10:36:27;9.57;;;8.47;;
9729;SDS011;4904;49.152;11.004;2023-12-07T10:38:54;10.27;;;8.57;;
9729;SDS011;4904;49.152;11.004;2023-12-07T10:41:23;9.37;;;8.40;;
9729;SDS011;4904;49.152;11.004;2023-12-07T10:43:52;11.80;;;9.10;;
9729;SDS011;4904;49.152;11.004;2023-12-07T10:46:20;10.10;;;9.07;;
9729;SDS011;4904;49.152;11.004;2023-12-07T10:48:47;10.27;;;9.17;;
9729;SDS011;4904;49.152;11.004;2023-12-07T10:51:17;11.63;;;9.67;;
9729;SDS011;4904;49.152;11.004;2023-12-07T10:53:50;10.93;;;9.70;;
9729;SDS011;4904;49.152;11.004;2023-12-07T10:56:20;10.37;;;8.77;;
9729;SDS011;4904;49.152;11.004;2023-12-07T10:58:55;11.00;;;9.90;;
9729;SDS011;4904;49.152;11.004;2023-12-07T11:01:22;10.77;;;9.67;;
9729;SDS011;4904;49.152;11.004;2023-12-07T11:03:49;12.37;;;9.73;;
9729;SDS011;4904;49.152;11.004;2023-12-07T11:06:19;10.63;;;9.53;;
9729;SDS011;4904;49.152;11.004;2023-12-07T11:08:47;12.10;;;9.40;;
9729;SDS011;4904;49.152;11.004;2023-12-07T11:11:20;10.10;;;9.10;;
9729;SDS011;4904;49.152;11.004;2023-12-07T11:13:53;12.80;;;10.13;;
9729;SDS011;4904;49.152;11.004;2023-12-07T11:16:28;11.23;;;9.20;;
9729;SDS011;4904;49.152;11.004;2023-12-07T11:18:56;13.93;;;10.30;;
9729;SDS011;4904;49.152;11.004;2023-12-07T11:21:23;11.13;;;9.37;;
9729;SDS011;4904;49.152;11.004;2023-12-07T11:23:50;11.63;;;10.10;;
9729;SDS011;4904;49.152;11.004;2023-12-07T11:26:19;11.73;;;9.53;;
9729;SDS011;4904;49.152;11.004;2023-12-07T11:28:46;10.90;;;9.30;;
9729;SDS011;4904;49.152;11.004;2023-12-07T11:31:15;11.70;;;9.73;;
9729;SDS011;4904;49.152;11.004;2023-12-07T11:33:42;10.80;;;9.67;;
9729;SDS011;4904;49.152;11.004;2023-12-07T11:36:10;11.47;;;9.97;;
9729;SDS011;4904;49.152;11.004;2023-12-07T11:38:39;10.77;;;9.02;;
9729;SDS011;4904;49.152;11.004;2023-12-07T11:41:40;12.90;;;10.40;;
9729;SDS011;4904;49.152;11.004;2023-12-07T11:44:09;10.53;;;9.43;;
9729;SDS011;4904;49.152;11.004;2023-12-07T11:46:38;10.77;;;9.23;;
9729;SDS011;4904;49.152;11.004;2023-12-07T11:49:05;13.15;;;9.25;;
9729;SDS011;4904;49.152;11.004;2023-12-07T11:51:35;9.60;;;8.60;;
9729;SDS011;4904;49.152;11.004;2023-12-07T11:54:02;10.20;;;9.10;;
9729;SDS011;4904;49.152;11.004;2023-12-07T11:56:29;12.43;;;9.93;;
9729;SDS011;4904;49.152;11.004;2023-12-07T11:58:56;9.60;;;8.32;;
9729;SDS011;4904;49.152;11.004;2023-12-07T12:01:24;10.82;;;9.73;;
9729;SDS011;4904;49.152;11.004;2023-12-07T12:03:53;8.63;;;7.57;;
9729;SDS011;4904;49.152;11.004;2023-12-07T12:06:20;9.95;;;7.68;;
9729;SDS011;4904;49.152;11.004;2023-12-07T12:08:51;8.93;;;8.02;;
9729;SDS011;4904;49.152;11.004;2023-12-07T12:11:18;8.57;;;7.68;;
9729;SDS011;4904;49.152;11.004;2023-12-07T12:13:45;12.88;;;8.57;;
9729;SDS011;4904;49.152;11.004;2023-12-07T12:16:14;8.77;;;7.77;;
9729;SDS011;4904;49.152;11.004;2023-12-07T12:18:41;11.30;;;9.55;;
9729;SDS011;4904;49.152;11.004;2023-12-07T12:21:10;10.25;;;8.55;;
9729;SDS011;4904;49.152;11.004;2023-12-07T12:23:37;9.23;;;8.30;;
9729;SDS011;4904;49.152;11.004;2023-12-07T12:26:05;9.37;;;7.40;;
9729;SDS011;4904;49.152;11.004;2023-12-07T12:28:35;8.93;;;8.02;;
9729;SDS011;4904;49.152;11.004;2023-12-07T12:31:07;9.20;;;7.93;;
9729;SDS011;4904;49.152;11.004;2023-12-07T12:33:36;9.43;;;8.20;;
9729;SDS011;4904;49.152;11.004;2023-12-07T12:36:03;9.73;;;8.57;;
9729;SDS011;4904;49.152;11.004;2023-12-07T12:38:34;9.32;;;8.25;;
9729;SDS011;4904;49.152;11.004;2023-12-07T12:41:01;11.13;;;8.70;;
9729;SDS011;4904;49.152;11.004;2023-12-07T12:43:29;8.67;;;7.77;;
9729;SDS011;4904;49.152;11.004;2023-12-07T12:45:57;10.40;;;8.50;;
9729;SDS011;4904;49.152;11.004;2023-12-07T12:48:24;10.18;;;8.50;;
9729;SDS011;4904;49.152;11.004;2023-12-07T12:50:51;9.18;;;8.25;;
9729;SDS011;4904;49.152;11.004;2023-12-07T12:53:18;9.27;;;8.32;;
9729;SDS011;4904;49.152;11.004;2023-12-07T12:55:48;9.48;;;8.45;;
9729;SDS011;4904;49.152;11.004;2023-12-07T12:58:15;9.15;;;8.25;;
9729;SDS011;4904;49.152;11.004;2023-12-07T13:00:52;9.55;;;8.05;;
9729;SDS011;4904;49.152;11.004;2023-12-07T13:03:18;12.27;;;8.75;;
9729;SDS011;4904;49.152;11.004;2023-12-07T13:05:45;9.45;;;8.55;;
9729;SDS011;4904;49.152;11.004;2023-12-07T13:08:12;8.75;;;7.43;;
9729;SDS011;4904;49.152;11.004;2023-12-07T13:10:40;9.50;;;8.48;;
9729;SDS011;4904;49.152;11.004;2023-12-07T13:13:07;9.35;;;8.10;;
9729;SDS011;4904;49.152;11.004;2023-12-07T13:15:34;10.73;;;7.80;;
9729;SDS011;4904;49.152;11.004;2023-12-07T13:18:04;9.63;;;8.07;;
9729;SDS011;4904;49.152;11.004;2023-12-07T13:20:31;8.85;;;7.95;;
9729;SDS011;4904;49.152;11.004;2023-12-07T13:22:58;10.73;;;8.90;;
9729;SDS011;4904;49.152;11.004;2023-12-07T13:25:25;10.70;;;7.38;;
9729;SDS011;4904;49.152;11.004;2023-12-07T13:27:52;9.40;;;7.47;;
9729;SDS011;4904;49.152;11.004;2023-12-07T13:30:19;10.48;;;8.02;;
9729;SDS011;4904;49.152;11.004;2023-12-07T13:32:46;8.55;;;7.65;;
9729;SDS011;4904;49.152;11.004;2023-12-07T13:35:16;8.60;;;7.72;;
9729;SDS011;4904;49.152;11.004;2023-12-07T13:37:43;9.10;;;8.10;;
9729;SDS011;4904;49.152;11.004;2023-12-07T13:40:10;10.60;;;8.48;;
9729;SDS011;4904;49.152;11.004;2023-12-07T13:42:37;9.20;;;8.30;;
9729;SDS011;4904;49.152;11.004;2023-12-07T13:45:05;10.05;;;8.93;;
9729;SDS011;4904;49.152;11.004;2023-12-07T13:47:33;11.48;;;9.02;;
9729;SDS011;4904;49.152;11.004;2023-12-07T13:50:02;9.02;;;8.13;;
9729;SDS011;4904;49.152;11.004;2023-12-07T13:52:32;9.57;;;8.60;;
9729;SDS011;4904;49.152;11.004;2023-12-07T13:54:59;13.07;;;8.82;;
9729;SDS011;4904;49.152;11.004;2023-12-07T13:57:27;10.65;;;8.40;;
9729;SDS011;4904;49.152;11.004;2023-12-07T13:59:54;10.65;;;8.48;;
9729;SDS011;4904;49.152;11.004;2023-12-07T14:02:21;8.98;;;8.07;;
9729;SDS011;4904;49.152;11.004;2023-12-07T14:04:48;8.32;;;7.43;;
9729;SDS011;4904;49.152;11.004;2023-12-07T14:07:16;9.98;;;8.57;;
9729;SDS011;4904;49.152;11.004;2023-12-07T14:09:46;11.00;;;8.00;;
9729;SDS011;4904;49.152;11.004;2023-12-07T14:12:13;9.35;;;8.35;;
9729;SDS011;4904;49.152;11.004;2023-12-07T14:14:40;9.93;;;8.90;;
9729;SDS011;4904;49.152;11.004;2023-12-07T14:17:08;10.38;;;8.95;;
9729;SDS011;4904;49.152;11.004;2023-12-07T14:19:35;9.20;;;8.00;;
9729;SDS011;4904;49.152;11.004;2023-12-07T14:22:03;10.48;;;9.38;;
9729;SDS011;4904;49.152;11.004;2023-12-07T14:24:30;13.60;;;10.27;;
9729;SDS011;4904;49.152;11.004;2023-12-07T14:26:58;13.20;;;11.23;;
9729;SDS011;4904;49.152;11.004;2023-12-07T14:29:25;11.70;;;10.35;;
9729;SDS011;4904;49.152;11.004;2023-12-07T14:31:52;11.75;;;9.52;;
9729;SDS011;4904;49.152;11.004;2023-12-07T14:34:19;11.52;;;9.30;;
9729;SDS011;4904;49.152;11.004;2023-12-07T14:36:46;10.93;;;8.75;;
9729;SDS011;4904;49.152;11.004;2023-12-07T14:39:13;10.18;;;9.18;;
9729;SDS011;4904;49.152;11.004;2023-12-07T14:41:42;13.45;;;11.55;;
9729;SDS011;4904;49.152;11.004;2023-12-07T14:44:12;13.65;;;11.55;;
9729;SDS011;4904;49.152;11.004;2023-12-07T14:46:41;12.73;;;11.43;;